createdAt,value
2023-02-07T00:00:52.712Z,-2.90
2023-02-07T00:01:56.248Z,-2.90
2023-02-07T00:03:00.168Z,-2.82
2023-02-07T00:04:05.195Z,-2.81
2023-02-07T00:05:09.026Z,-2.67
2023-02-07T00:06:22.569Z,-2.77
2023-02-07T00:07:31.150Z,-2.84
2023-02-07T00:08:37.188Z,-2.83
2023-02-07T00:09:47.089Z,-2.69
2023-02-07T00:10:53.497Z,-2.82
2023-02-07T00:12:00.768Z,-2.73
2023-02-07T00:13:13.218Z,-2.83
2023-02-07T00:14:26.550Z,-2.71
2023-02-07T00:15:31.682Z,-2.77
2023-02-07T00:16:34.951Z,-2.81
2023-02-07T00:17:38.510Z,-2.81
2023-02-07T00:18:43.629Z,-2.69
2023-02-07T00:19:53.794Z,-2.70
2023-02-07T00:21:05.290Z,-2.95
2023-02-07T00:22:11.602Z,-3.01
2023-02-07T00:23:17.409Z,-3.01
2023-02-07T00:24:22.898Z,-3.03
2023-02-07T00:25:26.883Z,-3.01
2023-02-07T00:26:31.733Z,-3.05
2023-02-07T00:27:35.745Z,-2.95
2023-02-07T00:28:41.565Z,-2.92
2023-02-07T00:29:44.845Z,-2.89
2023-02-07T00:30:56.854Z,-2.81
2023-02-07T00:32:07.348Z,-3.02
2023-02-07T00:33:15.269Z,-3.06
2023-02-07T00:34:23.255Z,-2.90
2023-02-07T00:35:27.140Z,-2.92
2023-02-07T00:36:34.167Z,-2.92
2023-02-07T00:37:39.877Z,-3.20
2023-02-07T00:38:48.466Z,-3.03
2023-02-07T00:39:51.906Z,-2.92
2023-02-07T00:40:57.377Z,-2.96
2023-02-07T00:42:03.054Z,-2.93
2023-02-07T00:43:07.291Z,-2.83
2023-02-07T00:44:15.098Z,-2.76
2023-02-07T00:45:20.411Z,-2.83
2023-02-07T00:46:25.366Z,-2.69
2023-02-07T00:47:31.991Z,-2.70
2023-02-07T00:48:42.121Z,-2.79
2023-02-07T00:49:47.714Z,-3.06
2023-02-07T00:50:52.812Z,-3.03
2023-02-07T00:51:55.854Z,-3.08
2023-02-07T00:52:58.841Z,-3.04
2023-02-07T00:54:07.820Z,-2.93
2023-02-07T00:55:12.343Z,-2.91
2023-02-07T00:56:19.909Z,-2.97
2023-02-07T00:57:24.698Z,-3.21
2023-02-07T00:58:32.125Z,-3.17
2023-02-07T00:59:37.203Z,-3.08
2023-02-07T01:00:42.808Z,-3.06
2023-02-07T01:01:46.117Z,-3.08
2023-02-07T01:02:53.822Z,-2.98
2023-02-07T01:03:57.881Z,-2.94
2023-02-07T01:05:04.521Z,-2.96
2023-02-07T01:06:09.890Z,-2.94
2023-02-07T01:07:13.901Z,-3.12
2023-02-07T01:08:23.711Z,-3.03
2023-02-07T01:09:28.186Z,-3.16
2023-02-07T01:10:32.256Z,-3.10
2023-02-07T01:11:36.219Z,-3.09
2023-02-07T01:12:42.995Z,-3.17
2023-02-07T01:13:49.059Z,-3.21
2023-02-07T01:14:54.357Z,-3.07
2023-02-07T01:15:58.964Z,-3.32
2023-02-07T01:17:02.116Z,-3.37
2023-02-07T01:18:05.823Z,-3.16
2023-02-07T01:19:11.906Z,-3.15
2023-02-07T01:20:20.796Z,-3.20
2023-02-07T01:21:32.175Z,-3.23
2023-02-07T01:22:45.456Z,-3.05
2023-02-07T01:23:49.536Z,-2.99
2023-02-07T01:24:57.480Z,-2.96
2023-02-07T01:26:00.885Z,-2.83
2023-02-07T01:27:06.303Z,-2.96
2023-02-07T01:28:14.687Z,-2.89
2023-02-07T01:29:18.933Z,-2.92
2023-02-07T01:30:22.978Z,-2.84
2023-02-07T01:31:27.838Z,-2.90
2023-02-07T01:32:37.168Z,-2.86
2023-02-07T01:33:47.383Z,-2.75
2023-02-07T01:34:54.403Z,-2.78
2023-02-07T01:36:00.363Z,-2.75
2023-02-07T01:37:06.282Z,-2.74
2023-02-07T01:38:10.522Z,-2.78
2023-02-07T01:39:17.307Z,-2.76
2023-02-07T01:40:23.917Z,-2.74
2023-02-07T01:41:28.845Z,-2.85
2023-02-07T01:42:34.289Z,-2.92
2023-02-07T01:44:13.438Z,-2.77
2023-02-07T01:45:39.461Z,-3.02
2023-02-07T01:46:44.890Z,-3.01
2023-02-07T01:47:50.892Z,-3.09
2023-02-07T01:48:57.976Z,-2.94
2023-02-07T01:50:03.547Z,-3.02
2023-02-07T01:51:08.826Z,-3.03
2023-02-07T01:52:18.437Z,-3.17
2023-02-07T01:53:26.774Z,-3.10
2023-02-07T01:54:33.780Z,-3.07
2023-02-07T01:55:48.182Z,-3.16
2023-02-07T01:56:59.874Z,-3.01
2023-02-07T01:58:07.643Z,-3.17
2023-02-07T01:59:13.184Z,-3.25
2023-02-07T02:06:22.397Z,-3.24
2023-02-07T02:07:42.594Z,-3.35
2023-02-07T02:08:59.800Z,-3.33
2023-02-07T02:10:05.771Z,-3.23
2023-02-07T02:11:11.693Z,-3.43
2023-02-07T02:12:40.157Z,-3.29
2023-02-07T02:14:19.808Z,-3.40
2023-02-07T02:16:20.364Z,-3.46
2023-02-07T02:17:42.643Z,-3.37
2023-02-07T02:19:04.601Z,-3.48
2023-02-07T02:20:45.003Z,-3.18
2023-02-07T02:22:26.012Z,-3.30
2023-02-07T02:23:52.589Z,-3.18
2023-02-07T02:24:56.582Z,-3.24
2023-02-07T02:26:38.081Z,-3.17
2023-02-07T02:28:12.481Z,-3.07
2023-02-07T02:29:39.460Z,-3.04
2023-02-07T02:31:19.013Z,-3.19
2023-02-07T02:32:48.862Z,-3.12
2023-02-07T02:34:01.534Z,-3.24
2023-02-07T02:35:14.204Z,-3.20
2023-02-07T02:36:51.594Z,-3.17
2023-02-07T02:38:01.828Z,-3.14
2023-02-07T02:39:28.758Z,-3.16
2023-02-07T02:40:57.444Z,-3.01
2023-02-07T02:42:15.090Z,-3.13
2023-02-07T02:43:38.778Z,-3.00
2023-02-07T02:44:54.401Z,-2.92
2023-02-07T02:46:26.814Z,-3.14
2023-02-07T02:47:38.088Z,-3.12
2023-02-07T02:48:45.409Z,-3.09
2023-02-07T02:49:53.013Z,-3.05
2023-02-07T02:50:59.234Z,-3.06
2023-02-07T02:52:04.678Z,-3.03
2023-02-07T02:53:10.248Z,-2.88
2023-02-07T02:54:28.923Z,-3.03
2023-02-07T02:56:22.540Z,-3.24
2023-02-07T02:57:41.448Z,-3.34
2023-02-07T02:59:00.857Z,-3.38
2023-02-07T03:00:24.731Z,-3.31
2023-02-07T03:02:10.390Z,-3.06
2023-02-07T03:03:27.937Z,-2.93
2023-02-07T03:05:14.266Z,-3.04
2023-02-07T03:06:33.877Z,-3.16
2023-02-07T03:07:52.313Z,-3.21
2023-02-07T03:09:24.999Z,-3.15
2023-02-07T03:10:36.564Z,-3.26
2023-02-07T03:11:58.137Z,-3.35
2023-02-07T03:13:03.918Z,-3.25
2023-02-07T03:14:17.934Z,-3.28
2023-02-07T03:15:39.461Z,-3.07
2023-02-07T03:16:53.338Z,-3.28
2023-02-07T03:18:12.272Z,-3.10
2023-02-07T03:19:27.011Z,-3.21
2023-02-07T03:20:38.473Z,-3.11
2023-02-07T03:21:49.033Z,-3.28
2023-02-07T03:23:01.030Z,-3.10
2023-02-07T03:24:15.690Z,-2.92
2023-02-07T03:25:22.995Z,-2.87
2023-02-07T03:26:27.890Z,-2.95
2023-02-07T03:27:35.046Z,-2.89
2023-02-07T03:28:42.043Z,-2.81
2023-02-07T03:29:50.718Z,-3.09
2023-02-07T03:30:58.440Z,-2.96
2023-02-07T03:32:05.864Z,-3.08
2023-02-07T03:33:14.894Z,-3.26
2023-02-07T03:34:25.223Z,-3.21
2023-02-07T03:35:36.460Z,-3.24
2023-02-07T03:37:11.419Z,-3.43
2023-02-07T03:38:28.840Z,-3.41
2023-02-07T03:39:36.847Z,-3.22
2023-02-07T03:40:49.635Z,-3.12
2023-02-07T03:42:25.023Z,-2.96
2023-02-07T03:43:32.581Z,-2.96
2023-02-07T03:44:37.686Z,-3.05
2023-02-07T03:45:43.403Z,-2.91
2023-02-07T03:46:51.215Z,-2.83
2023-02-07T03:47:55.867Z,-2.96
2023-02-07T03:49:06.059Z,-2.88
2023-02-07T03:50:10.269Z,-2.83
2023-02-07T03:51:16.559Z,-2.79
2023-02-07T03:52:25.038Z,-2.82
2023-02-07T03:53:30.173Z,-2.77
2023-02-07T03:54:34.717Z,-2.78
2023-02-07T03:55:39.851Z,-2.75
2023-02-07T03:56:43.187Z,-2.86
2023-02-07T03:57:47.772Z,-2.83
2023-02-07T03:58:50.993Z,-2.65
2023-02-07T03:59:55.845Z,-2.79
2023-02-07T04:01:05.077Z,-2.81
2023-02-07T04:02:10.085Z,-2.75
2023-02-07T04:03:17.056Z,-2.96
2023-02-07T04:04:21.245Z,-2.92
2023-02-07T04:05:26.852Z,-2.97
2023-02-07T04:06:30.816Z,-3.00
2023-02-07T04:07:34.310Z,-3.14
2023-02-07T04:08:37.987Z,-2.93
2023-02-07T04:09:43.622Z,-2.97
2023-02-07T04:10:56.742Z,-2.92
2023-02-07T04:12:07.656Z,-3.07
2023-02-07T04:13:13.351Z,-2.95
2023-02-07T04:14:24.324Z,-2.88
2023-02-07T04:15:28.714Z,-2.89
2023-02-07T04:16:34.136Z,-2.87
2023-02-07T04:17:47.264Z,-2.73
2023-02-07T04:18:51.288Z,-2.70
2023-02-07T04:19:58.350Z,-3.03
2023-02-07T04:21:05.597Z,-2.86
2023-02-07T04:22:11.337Z,-2.97
2023-02-07T04:23:15.022Z,-3.10
2023-02-07T04:24:18.348Z,-2.89
2023-02-07T04:25:21.661Z,-3.10
2023-02-07T04:26:29.774Z,-2.90
2023-02-07T04:27:36.496Z,-2.90
2023-02-07T04:28:39.943Z,-2.83
2023-02-07T04:29:44.688Z,-3.03
2023-02-07T04:30:53.736Z,-2.89
2023-02-07T04:32:09.601Z,-3.20
2023-02-07T04:33:15.080Z,-3.15
2023-02-07T04:34:21.130Z,-3.14
2023-02-07T04:35:24.637Z,-3.17
2023-02-07T04:36:40.235Z,-3.29
2023-02-07T04:37:47.537Z,-3.11
2023-02-07T04:38:59.266Z,-3.18
2023-02-07T04:40:06.722Z,-3.15
2023-02-07T04:41:11.973Z,-2.97
2023-02-07T04:42:15.539Z,-2.92
2023-02-07T04:43:26.345Z,-3.00
2023-02-07T04:44:52.351Z,-2.90
2023-02-07T04:45:59.758Z,-2.82
2023-02-07T04:47:05.563Z,-2.96
2023-02-07T04:48:10.170Z,-2.92
2023-02-07T04:49:18.184Z,-2.86
2023-02-07T04:50:24.769Z,-3.04
2023-02-07T04:51:40.169Z,-3.21
2023-02-07T04:56:34.823Z,-3.34
2023-02-07T04:57:41.798Z,-3.33
2023-02-07T04:58:48.713Z,-3.25
2023-02-07T05:00:02.535Z,-3.18
2023-02-07T05:05:48.924Z,-3.12
2023-02-07T05:06:59.771Z,-3.30
2023-02-07T05:08:07.191Z,-3.39
2023-02-07T05:09:15.613Z,-3.29
2023-02-07T05:10:35.638Z,-3.17
2023-02-07T05:11:42.178Z,-3.00
2023-02-07T05:12:59.977Z,-3.29
2023-02-07T05:14:12.102Z,-3.41
2023-02-07T05:15:30.972Z,-3.35
2023-02-07T05:16:38.494Z,-3.50
2023-02-07T05:17:46.942Z,-3.33
2023-02-07T06:29:24.818Z,-2.66
2023-02-07T06:30:58.836Z,-2.76
2023-02-07T06:32:11.580Z,-3.03
2023-02-07T06:33:22.084Z,-2.90
2023-02-07T06:56:39.855Z,-2.17
2023-02-07T06:57:44.441Z,-2.24
2023-02-07T06:58:59.077Z,-2.14
2023-02-07T07:00:19.082Z,-2.42
2023-02-07T07:01:26.334Z,-2.56
2023-02-07T07:02:32.598Z,-2.75
2023-02-07T07:03:40.203Z,-2.86
2023-02-07T07:04:44.162Z,-2.67
2023-02-07T14:44:07.978Z,-2.96
2023-02-07T14:45:23.659Z,-2.97
2023-02-07T14:46:35.203Z,-2.99
2023-02-07T14:47:47.713Z,-3.01
2023-02-07T14:49:03.078Z,-3.06
2023-02-07T14:50:08.059Z,-2.96
2023-02-07T14:51:42.999Z,-2.98
2023-02-07T14:52:52.593Z,-3.03
2023-02-07T14:54:04.767Z,-3.06
2023-02-07T14:55:22.135Z,-3.10
2023-02-07T14:56:48.486Z,-2.94
2023-02-07T14:58:02.710Z,-3.19
2023-02-07T14:59:15.789Z,-3.15
2023-02-07T15:00:51.954Z,-3.09
2023-02-07T15:02:33.941Z,-3.12
2023-02-07T15:03:45.298Z,-3.04
2023-02-07T15:04:52.211Z,-3.19
2023-02-07T15:06:06.754Z,-3.14
2023-02-07T15:07:15.645Z,-3.17
2023-02-07T15:08:26.237Z,-3.20
2023-02-07T15:09:36.236Z,-3.20
2023-02-07T15:10:55.861Z,-3.16
2023-02-07T15:12:18.658Z,-3.30
2023-02-07T15:13:39.740Z,-3.47
2023-02-07T15:14:46.000Z,-3.30
2023-02-07T15:16:03.924Z,-3.27
2023-02-07T15:17:12.181Z,-3.33
2023-02-07T15:18:20.397Z,-3.29
2023-02-07T15:19:38.852Z,-3.27
2023-02-07T15:20:51.239Z,-3.23
2023-02-07T15:22:14.210Z,-3.18
2023-02-07T15:23:24.269Z,-3.27
2023-02-07T15:27:11.878Z,-3.25
2023-02-07T15:28:32.860Z,-3.18
2023-02-07T15:29:42.982Z,-3.19
2023-02-07T15:33:13.588Z,-2.99
2023-02-07T15:34:22.841Z,-2.90
2023-02-07T15:35:29.580Z,-2.89
2023-02-07T15:36:42.486Z,-2.83
2023-02-07T15:37:49.452Z,-2.79
2023-02-07T15:39:07.461Z,-2.91
2023-02-07T15:40:39.551Z,-2.93
2023-02-07T15:41:46.755Z,-2.86
2023-02-07T15:43:03.876Z,-2.76
2023-02-07T15:44:32.954Z,-2.81
2023-02-07T15:45:36.731Z,-2.86
2023-02-07T15:47:21.093Z,-2.74
2023-02-07T15:48:28.419Z,-2.79
2023-02-07T15:50:09.600Z,-2.78
2023-02-07T15:51:27.206Z,-2.74
2023-02-07T15:52:45.435Z,-2.82
2023-02-07T15:54:02.027Z,-2.86
2023-02-07T15:55:30.309Z,-2.84
2023-02-07T15:56:52.691Z,-3.02
2023-02-07T16:01:43.789Z,-3.17
2023-02-07T16:03:02.238Z,-3.04
2023-02-07T16:04:10.983Z,-3.17
2023-02-07T16:05:28.054Z,-3.23
2023-02-07T16:06:36.876Z,-3.21
2023-02-07T16:07:52.780Z,-3.11
2023-02-07T16:09:09.728Z,-3.07
2023-02-07T16:10:24.889Z,-3.10
2023-02-07T16:11:44.820Z,-3.06
2023-02-07T16:13:14.864Z,-2.98
2023-02-07T16:14:26.065Z,-2.90
2023-02-07T16:15:39.188Z,-3.09
2023-02-07T16:16:58.118Z,-3.07
2023-02-07T16:18:45.007Z,-3.01
2023-02-07T16:20:17.956Z,-3.18
2023-02-07T16:21:37.604Z,-3.07
2023-02-07T16:22:48.511Z,-3.05
2023-02-07T16:24:07.128Z,-3.03
2023-02-07T16:25:21.473Z,-2.94
2023-02-07T16:26:41.604Z,-3.19
2023-02-07T16:27:51.820Z,-3.22
2023-02-07T16:29:09.152Z,-3.15
2023-02-07T16:30:26.392Z,-3.10
2023-02-07T16:31:36.040Z,-3.07
2023-02-07T16:32:41.714Z,-3.15
2023-02-07T16:34:01.610Z,-3.26
2023-02-07T16:35:23.285Z,-3.17
2023-02-07T16:36:37.189Z,-3.20
2023-02-07T16:37:46.469Z,-3.21
2023-02-07T16:38:55.469Z,-3.23
2023-02-07T16:40:06.465Z,-3.28
2023-02-07T16:41:39.487Z,-3.24
2023-02-07T16:42:50.629Z,-3.35
2023-02-07T16:49:23.759Z,-3.49
2023-02-07T16:50:29.965Z,-3.56
2023-02-07T16:51:37.901Z,-3.52
2023-02-07T16:52:45.486Z,-3.56
2023-02-07T16:54:06.378Z,-3.72
2023-02-07T16:55:11.809Z,-3.63
2023-02-07T17:01:46.512Z,-3.60
2023-02-07T17:02:54.624Z,-3.60
2023-02-07T17:04:05.666Z,-3.56
2023-02-07T17:05:10.700Z,-3.56
2023-02-07T17:06:16.134Z,-3.62
2023-02-07T17:07:21.272Z,-3.56
2023-02-07T17:08:30.462Z,-3.61
2023-02-07T17:09:38.323Z,-3.63
2023-02-07T17:10:52.900Z,-3.75
2023-02-07T17:12:02.571Z,-3.62
2023-02-07T17:13:08.829Z,-3.60
2023-02-07T17:14:12.029Z,-3.69
2023-02-07T17:15:28.754Z,-3.74
2023-02-07T17:16:40.192Z,-3.74
2023-02-07T17:17:48.268Z,-3.78
2023-02-07T17:18:58.689Z,-3.79
2023-02-07T17:35:11.744Z,-3.89
2023-02-07T17:36:19.863Z,-3.93
2023-02-07T17:37:27.281Z,-3.95
2023-02-07T17:38:33.207Z,-3.95
2023-02-07T17:39:39.156Z,-3.97
2023-02-07T17:40:44.512Z,-4.13
2023-02-07T17:41:55.244Z,-4.16
2023-02-07T17:43:09.333Z,-4.20
2023-02-07T17:44:14.062Z,-4.26
2023-02-07T17:45:17.681Z,-4.22
2023-02-07T17:46:30.594Z,-4.25
2023-02-07T17:47:34.231Z,-4.20
2023-02-07T17:48:37.524Z,-4.25
2023-02-07T17:49:43.225Z,-4.18
2023-02-07T17:50:51.660Z,-4.15
2023-02-07T17:51:54.758Z,-4.14
2023-02-07T17:53:02.612Z,-4.15
2023-02-07T17:54:06.784Z,-4.14
2023-02-07T17:55:15.961Z,-4.07
2023-02-07T17:56:27.688Z,-4.15
2023-02-07T17:57:32.879Z,-4.09
2023-02-07T17:58:38.879Z,-4.03
2023-02-07T17:59:48.878Z,-4.06
2023-02-07T18:00:54.466Z,-3.96
2023-02-07T18:01:58.416Z,-3.99
2023-02-07T18:03:05.111Z,-3.98
2023-02-07T18:04:10.804Z,-3.85
2023-02-07T18:05:20.176Z,-3.75
2023-02-07T18:06:29.912Z,-3.71
2023-02-07T18:07:34.309Z,-3.72
2023-02-07T18:08:38.700Z,-3.71
2023-02-07T18:09:44.302Z,-3.74
2023-02-07T18:10:48.202Z,-3.73
2023-02-07T18:11:51.979Z,-3.72
2023-02-07T18:12:55.638Z,-3.59
2023-02-07T18:14:02.267Z,-3.52
2023-02-07T18:15:11.422Z,-3.44
2023-02-07T18:16:24.573Z,-3.41
2023-02-07T18:17:29.988Z,-3.47
2023-02-07T18:18:40.964Z,-3.44
2023-02-07T18:19:51.831Z,-3.50
2023-02-07T18:21:13.637Z,-3.47
2023-02-07T18:22:25.882Z,-3.52
2023-02-07T18:23:34.010Z,-3.42
2023-02-07T18:24:44.181Z,-3.34
2023-02-07T18:26:15.269Z,-3.45
2023-02-07T18:27:23.623Z,-3.38
2023-02-07T18:28:32.624Z,-3.31
2023-02-07T18:29:47.985Z,-3.36
2023-02-07T18:30:59.516Z,-3.31
2023-02-07T18:32:09.234Z,-3.18
2023-02-07T18:33:19.580Z,-3.34
2023-02-07T18:34:27.605Z,-3.28
2023-02-07T18:35:36.875Z,-3.39
2023-02-07T18:36:43.617Z,-3.27
2023-02-07T18:37:54.949Z,-3.25
2023-02-07T18:39:14.051Z,-3.12
2023-02-07T18:40:24.206Z,-3.27
2023-02-07T18:41:33.835Z,-3.20
2023-02-07T18:42:41.041Z,-3.17
2023-02-07T18:43:48.120Z,-3.08
2023-02-07T18:44:57.496Z,-2.98
2023-02-07T18:46:08.034Z,-3.08
2023-02-07T18:47:18.642Z,-3.08
2023-02-07T18:48:23.603Z,-2.99
2023-02-07T18:49:33.538Z,-3.10
2023-02-07T19:32:36.634Z,-3.08
2023-02-07T19:33:45.692Z,-3.03
2023-02-07T19:34:49.207Z,-3.02
2023-02-07T19:35:57.689Z,-3.07
2023-02-07T19:37:07.785Z,-3.12
